sensor_id;sensor_type;location;lat;lon;timestamp;P1;durP1;ratioP1;P2;durP2;ratioP2
62796;SDS011;48839;48.546;-4.178;2022-08-20T00:00:07;10.20;;;3.95;;
62796;SDS011;48839;48.546;-4.178;2022-08-20T00:02:38;9.48;;;3.17;;
62796;SDS011;48839;48.546;-4.178;2022-08-20T00:05:05;12.13;;;3.22;;
62796;SDS011;48839;48.546;-4.178;2022-08-20T00:07:31;12.38;;;3.42;;
62796;SDS011;48839;48.546;-4.178;2022-08-20T00:09:57;12.23;;;3.17;;
62796;SDS011;48839;48.546;-4.178;2022-08-20T00:12:23;11.52;;;3.33;;
62796;SDS011;48839;48.546;-4.178;2022-08-20T00:14:49;9.68;;;2.95;;
62796;SDS011;48839;48.546;-4.178;2022-08-20T00:17:15;15.85;;;3.65;;
62796;SDS011;48839;48.546;-4.178;2022-08-20T00:19:41;14.07;;;3.58;;
62796;SDS011;48839;48.546;-4.178;2022-08-20T00:22:07;8.88;;;3.53;;
62796;SDS011;48839;48.546;-4.178;2022-08-20T00:24:33;12.70;;;3.53;;
62796;SDS011;48839;48.546;-4.178;2022-08-20T00:26:59;12.05;;;3.58;;
62796;SDS011;48839;48.546;-4.178;2022-08-20T00:29:25;17.30;;;4.35;;
62796;SDS011;48839;48.546;-4.178;2022-08-20T00:31:51;12.27;;;3.75;;
62796;SDS011;48839;48.546;-4.178;2022-08-20T00:34:17;10.65;;;3.42;;
62796;SDS011;48839;48.546;-4.178;2022-08-20T00:36:43;14.98;;;3.47;;
62796;SDS011;48839;48.546;-4.178;2022-08-20T00:39:09;18.15;;;4.53;;
62796;SDS011;48839;48.546;-4.178;2022-08-20T00:41:35;12.02;;;3.47;;
62796;SDS011;48839;48.546;-4.178;2022-08-20T00:44:10;8.93;;;3.70;;
62796;SDS011;48839;48.546;-4.178;2022-08-20T00:46:37;11.38;;;3.38;;
62796;SDS011;48839;48.546;-4.178;2022-08-20T00:49:04;11.15;;;3.63;;
62796;SDS011;48839;48.546;-4.178;2022-08-20T00:54:18;9.32;;;2.90;;
62796;SDS011;48839;48.546;-4.178;2022-08-20T00:56:46;15.70;;;3.72;;
62796;SDS011;48839;48.546;-4.178;2022-08-20T00:59:15;18.52;;;3.88;;
62796;SDS011;48839;48.546;-4.178;2022-08-20T01:01:42;8.57;;;3.53;;
62796;SDS011;48839;48.546;-4.178;2022-08-20T01:04:08;11.98;;;3.38;;
62796;SDS011;48839;48.546;-4.178;2022-08-20T01:06:36;12.57;;;3.65;;
62796;SDS011;48839;48.546;-4.178;2022-08-20T01:09:02;13.95;;;3.40;;
62796;SDS011;48839;48.546;-4.178;2022-08-20T01:11:28;10.80;;;3.30;;
62796;SDS011;48839;48.546;-4.178;2022-08-20T01:13:58;11.20;;;3.65;;
62796;SDS011;48839;48.546;-4.178;2022-08-20T01:16:25;14.75;;;3.58;;
62796;SDS011;48839;48.546;-4.178;2022-08-20T01:18:53;10.85;;;3.72;;
62796;SDS011;48839;48.546;-4.178;2022-08-20T01:21:21;13.85;;;3.30;;
62796;SDS011;48839;48.546;-4.178;2022-08-20T01:26:51;10.65;;;3.38;;
62796;SDS011;48839;48.546;-4.178;2022-08-20T01:29:21;7.72;;;2.78;;
62796;SDS011;48839;48.546;-4.178;2022-08-20T01:31:48;8.52;;;2.70;;
62796;SDS011;48839;48.546;-4.178;2022-08-20T01:34:16;7.47;;;2.88;;
62796;SDS011;48839;48.546;-4.178;2022-08-20T01:39:13;12.52;;;3.38;;
62796;SDS011;48839;48.546;-4.178;2022-08-20T01:44:14;9.23;;;3.80;;
62796;SDS011;48839;48.546;-4.178;2022-08-20T01:46:41;16.48;;;3.75;;
62796;SDS011;48839;48.546;-4.178;2022-08-20T01:51:36;12.48;;;3.60;;
62796;SDS011;48839;48.546;-4.178;2022-08-20T01:54:03;16.20;;;3.58;;
62796;SDS011;48839;48.546;-4.178;2022-08-20T01:56:31;11.40;;;3.83;;
62796;SDS011;48839;48.546;-4.178;2022-08-20T01:58:59;9.48;;;3.65;;
62796;SDS011;48839;48.546;-4.178;2022-08-20T02:03:52;15.05;;;3.88;;
62796;SDS011;48839;48.546;-4.178;2022-08-20T02:06:18;12.82;;;3.42;;
62796;SDS011;48839;48.546;-4.178;2022-08-20T02:08:50;10.35;;;3.35;;
62796;SDS011;48839;48.546;-4.178;2022-08-20T02:11:16;17.45;;;3.90;;
62796;SDS011;48839;48.546;-4.178;2022-08-20T02:13:42;14.48;;;3.95;;
62796;SDS011;48839;48.546;-4.178;2022-08-20T02:16:08;11.80;;;3.63;;
62796;SDS011;48839;48.546;-4.178;2022-08-20T02:18:34;13.93;;;3.83;;
62796;SDS011;48839;48.546;-4.178;2022-08-20T02:21:01;10.43;;;3.35;;
62796;SDS011;48839;48.546;-4.178;2022-08-20T02:23:27;11.93;;;3.45;;
62796;SDS011;48839;48.546;-4.178;2022-08-20T02:25:53;17.13;;;3.58;;
62796;SDS011;48839;48.546;-4.178;2022-08-20T02:28:20;13.45;;;3.80;;
62796;SDS011;48839;48.546;-4.178;2022-08-20T02:30:48;9.50;;;3.30;;
62796;SDS011;48839;48.546;-4.178;2022-08-20T02:33:15;14.25;;;3.05;;
62796;SDS011;48839;48.546;-4.178;2022-08-20T02:35:41;12.50;;;3.70;;
62796;SDS011;48839;48.546;-4.178;2022-08-20T02:38:08;13.13;;;3.35;;
62796;SDS011;48839;48.546;-4.178;2022-08-20T02:40:34;14.30;;;3.70;;
62796;SDS011;48839;48.546;-4.178;2022-08-20T02:43:02;13.88;;;4.20;;
62796;SDS011;48839;48.546;-4.178;2022-08-20T02:45:29;13.38;;;3.17;;
62796;SDS011;48839;48.546;-4.178;2022-08-20T02:47:56;11.05;;;3.20;;
62796;SDS011;48839;48.546;-4.178;2022-08-20T02:50:23;13.10;;;3.40;;
62796;SDS011;48839;48.546;-4.178;2022-08-20T02:52:50;8.90;;;3.35;;
62796;SDS011;48839;48.546;-4.178;2022-08-20T02:55:16;23.55;;;3.97;;
62796;SDS011;48839;48.546;-4.178;2022-08-20T02:57:42;11.50;;;3.22;;
62796;SDS011;48839;48.546;-4.178;2022-08-20T03:00:10;16.13;;;3.55;;
62796;SDS011;48839;48.546;-4.178;2022-08-20T03:02:37;13.75;;;4.32;;
62796;SDS011;48839;48.546;-4.178;2022-08-20T03:05:04;11.43;;;4.18;;
62796;SDS011;48839;48.546;-4.178;2022-08-20T03:07:30;17.75;;;4.20;;
62796;SDS011;48839;48.546;-4.178;2022-08-20T03:09:56;11.57;;;3.67;;
62796;SDS011;48839;48.546;-4.178;2022-08-20T03:12:22;16.85;;;4.10;;
62796;SDS011;48839;48.546;-4.178;2022-08-20T03:14:48;19.00;;;5.10;;
62796;SDS011;48839;48.546;-4.178;2022-08-20T03:17:14;14.38;;;3.40;;
62796;SDS011;48839;48.546;-4.178;2022-08-20T03:19:40;12.05;;;3.90;;
62796;SDS011;48839;48.546;-4.178;2022-08-20T03:22:06;10.57;;;4.13;;
62796;SDS011;48839;48.546;-4.178;2022-08-20T03:24:32;14.95;;;3.60;;
62796;SDS011;48839;48.546;-4.178;2022-08-20T03:26:58;18.45;;;4.45;;
62796;SDS011;48839;48.546;-4.178;2022-08-20T03:29:24;11.90;;;4.10;;
62796;SDS011;48839;48.546;-4.178;2022-08-20T03:31:50;16.20;;;4.05;;
62796;SDS011;48839;48.546;-4.178;2022-08-20T03:34:16;19.02;;;4.43;;
62796;SDS011;48839;48.546;-4.178;2022-08-20T03:36:42;21.17;;;4.60;;
62796;SDS011;48839;48.546;-4.178;2022-08-20T03:39:09;16.90;;;3.67;;
62796;SDS011;48839;48.546;-4.178;2022-08-20T03:41:37;13.40;;;5.10;;
62796;SDS011;48839;48.546;-4.178;2022-08-20T03:44:03;15.93;;;4.50;;
62796;SDS011;48839;48.546;-4.178;2022-08-20T03:46:30;25.65;;;5.63;;
62796;SDS011;48839;48.546;-4.178;2022-08-20T03:48:56;10.18;;;3.63;;
62796;SDS011;48839;48.546;-4.178;2022-08-20T03:51:22;10.07;;;3.75;;
62796;SDS011;48839;48.546;-4.178;2022-08-20T03:53:49;16.15;;;3.78;;
62796;SDS011;48839;48.546;-4.178;2022-08-20T03:56:15;11.85;;;3.42;;
62796;SDS011;48839;48.546;-4.178;2022-08-20T03:58:42;14.55;;;4.25;;
62796;SDS011;48839;48.546;-4.178;2022-08-20T04:01:08;14.10;;;3.38;;
62796;SDS011;48839;48.546;-4.178;2022-08-20T04:03:34;12.90;;;3.80;;
62796;SDS011;48839;48.546;-4.178;2022-08-20T04:06:00;19.80;;;3.92;;
62796;SDS011;48839;48.546;-4.178;2022-08-20T04:08:27;15.00;;;3.65;;
62796;SDS011;48839;48.546;-4.178;2022-08-20T04:10:54;18.45;;;3.58;;
62796;SDS011;48839;48.546;-4.178;2022-08-20T04:13:23;12.10;;;3.90;;
62796;SDS011;48839;48.546;-4.178;2022-08-20T04:15:50;8.93;;;2.90;;
62796;SDS011;48839;48.546;-4.178;2022-08-20T04:18:19;11.18;;;3.30;;
62796;SDS011;48839;48.546;-4.178;2022-08-20T04:20:48;13.68;;;3.47;;
62796;SDS011;48839;48.546;-4.178;2022-08-20T04:23:14;11.30;;;3.60;;
62796;SDS011;48839;48.546;-4.178;2022-08-20T04:25:43;15.90;;;3.40;;
62796;SDS011;48839;48.546;-4.178;2022-08-20T04:28:11;12.27;;;3.20;;
62796;SDS011;48839;48.546;-4.178;2022-08-20T04:30:38;16.20;;;3.80;;
62796;SDS011;48839;48.546;-4.178;2022-08-20T04:33:04;13.88;;;3.30;;
62796;SDS011;48839;48.546;-4.178;2022-08-20T04:35:30;10.27;;;2.75;;
62796;SDS011;48839;48.546;-4.178;2022-08-20T04:38:00;11.52;;;3.15;;
62796;SDS011;48839;48.546;-4.178;2022-08-20T04:40:27;13.43;;;3.15;;
62796;SDS011;48839;48.546;-4.178;2022-08-20T04:43:11;10.63;;;3.30;;
62796;SDS011;48839;48.546;-4.178;2022-08-20T04:45:37;14.35;;;4.30;;
62796;SDS011;48839;48.546;-4.178;2022-08-20T04:48:04;10.57;;;2.95;;
62796;SDS011;48839;48.546;-4.178;2022-08-20T04:50:35;14.68;;;3.13;;
62796;SDS011;48839;48.546;-4.178;2022-08-20T04:53:03;16.00;;;2.97;;
62796;SDS011;48839;48.546;-4.178;2022-08-20T04:55:30;12.10;;;2.50;;
62796;SDS011;48839;48.546;-4.178;2022-08-20T04:58:05;12.80;;;2.70;;
62796;SDS011;48839;48.546;-4.178;2022-08-20T05:00:33;7.78;;;2.53;;
62796;SDS011;48839;48.546;-4.178;2022-08-20T05:02:59;11.18;;;2.65;;
62796;SDS011;48839;48.546;-4.178;2022-08-20T05:05:25;14.48;;;2.85;;
62796;SDS011;48839;48.546;-4.178;2022-08-20T05:07:52;14.35;;;3.00;;
62796;SDS011;48839;48.546;-4.178;2022-08-20T05:10:19;11.68;;;2.72;;
62796;SDS011;48839;48.546;-4.178;2022-08-20T05:12:45;14.77;;;3.55;;
62796;SDS011;48839;48.546;-4.178;2022-08-20T05:15:12;12.63;;;2.88;;
62796;SDS011;48839;48.546;-4.178;2022-08-20T05:17:39;8.25;;;2.75;;
62796;SDS011;48839;48.546;-4.178;2022-08-20T05:20:06;9.60;;;3.53;;
62796;SDS011;48839;48.546;-4.178;2022-08-20T05:22:32;8.23;;;2.90;;
62796;SDS011;48839;48.546;-4.178;2022-08-20T05:24:58;12.75;;;2.50;;
62796;SDS011;48839;48.546;-4.178;2022-08-20T05:27:25;7.80;;;2.58;;
62796;SDS011;48839;48.546;-4.178;2022-08-20T05:30:04;10.20;;;2.65;;
62796;SDS011;48839;48.546;-4.178;2022-08-20T05:32:33;10.05;;;2.80;;
62796;SDS011;48839;48.546;-4.178;2022-08-20T05:35:00;10.23;;;2.63;;
62796;SDS011;48839;48.546;-4.178;2022-08-20T05:37:26;11.20;;;2.50;;
62796;SDS011;48839;48.546;-4.178;2022-08-20T05:39:53;18.02;;;3.22;;
62796;SDS011;48839;48.546;-4.178;2022-08-20T05:42:20;12.45;;;2.70;;
62796;SDS011;48839;48.546;-4.178;2022-08-20T05:44:46;11.68;;;2.92;;
62796;SDS011;48839;48.546;-4.178;2022-08-20T05:47:12;14.73;;;3.03;;
62796;SDS011;48839;48.546;-4.178;2022-08-20T05:49:38;7.90;;;3.03;;
62796;SDS011;48839;48.546;-4.178;2022-08-20T05:52:05;12.55;;;3.13;;
62796;SDS011;48839;48.546;-4.178;2022-08-20T05:54:31;10.88;;;2.90;;
62796;SDS011;48839;48.546;-4.178;2022-08-20T05:56:57;21.48;;;3.13;;
62796;SDS011;48839;48.546;-4.178;2022-08-20T05:59:23;17.50;;;3.58;;
62796;SDS011;48839;48.546;-4.178;2022-08-20T06:01:50;18.83;;;2.92;;
62796;SDS011;48839;48.546;-4.178;2022-08-20T06:04:16;15.27;;;2.83;;
62796;SDS011;48839;48.546;-4.178;2022-08-20T06:06:49;10.73;;;2.97;;
62796;SDS011;48839;48.546;-4.178;2022-08-20T06:09:16;11.35;;;2.53;;
62796;SDS011;48839;48.546;-4.178;2022-08-20T06:11:42;9.73;;;3.05;;
62796;SDS011;48839;48.546;-4.178;2022-08-20T06:14:08;14.23;;;3.10;;
62796;SDS011;48839;48.546;-4.178;2022-08-20T06:16:34;11.88;;;2.58;;
62796;SDS011;48839;48.546;-4.178;2022-08-20T06:19:01;12.40;;;2.95;;
62796;SDS011;48839;48.546;-4.178;2022-08-20T06:21:27;10.68;;;3.05;;
62796;SDS011;48839;48.546;-4.178;2022-08-20T06:23:53;12.57;;;2.70;;
62796;SDS011;48839;48.546;-4.178;2022-08-20T06:26:19;14.80;;;3.13;;
62796;SDS011;48839;48.546;-4.178;2022-08-20T06:28:45;11.43;;;2.40;;
62796;SDS011;48839;48.546;-4.178;2022-08-20T06:31:11;9.77;;;2.72;;
62796;SDS011;48839;48.546;-4.178;2022-08-20T06:33:37;12.27;;;3.45;;
62796;SDS011;48839;48.546;-4.178;2022-08-20T06:36:03;11.98;;;2.97;;
62796;SDS011;48839;48.546;-4.178;2022-08-20T06:38:29;15.27;;;3.83;;
62796;SDS011;48839;48.546;-4.178;2022-08-20T06:40:56;11.20;;;2.95;;
62796;SDS011;48839;48.546;-4.178;2022-08-20T06:43:23;10.73;;;2.83;;
62796;SDS011;48839;48.546;-4.178;2022-08-20T06:45:49;16.25;;;3.20;;
62796;SDS011;48839;48.546;-4.178;2022-08-20T06:48:16;11.85;;;3.38;;
62796;SDS011;48839;48.546;-4.178;2022-08-20T06:50:45;15.52;;;2.85;;
62796;SDS011;48839;48.546;-4.178;2022-08-20T06:53:12;13.98;;;3.60;;
62796;SDS011;48839;48.546;-4.178;2022-08-20T06:55:39;14.18;;;3.53;;
62796;SDS011;48839;48.546;-4.178;2022-08-20T06:58:06;12.65;;;3.20;;
62796;SDS011;48839;48.546;-4.178;2022-08-20T07:00:33;13.65;;;2.92;;
62796;SDS011;48839;48.546;-4.178;2022-08-20T07:03:00;12.77;;;3.15;;
62796;SDS011;48839;48.546;-4.178;2022-08-20T07:05:27;8.88;;;2.20;;
62796;SDS011;48839;48.546;-4.178;2022-08-20T07:07:53;15.05;;;2.20;;
62796;SDS011;48839;48.546;-4.178;2022-08-20T07:10:19;14.57;;;2.90;;
62796;SDS011;48839;48.546;-4.178;2022-08-20T07:12:46;8.80;;;2.45;;
62796;SDS011;48839;48.546;-4.178;2022-08-20T07:15:15;9.63;;;2.60;;
62796;SDS011;48839;48.546;-4.178;2022-08-20T07:17:41;8.95;;;2.50;;
62796;SDS011;48839;48.546;-4.178;2022-08-20T07:20:09;11.27;;;2.63;;
62796;SDS011;48839;48.546;-4.178;2022-08-20T07:22:35;9.70;;;1.95;;
62796;SDS011;48839;48.546;-4.178;2022-08-20T07:25:05;13.02;;;2.38;;
62796;SDS011;48839;48.546;-4.178;2022-08-20T07:27:32;14.32;;;2.88;;
62796;SDS011;48839;48.546;-4.178;2022-08-20T07:29:58;12.48;;;2.38;;
62796;SDS011;48839;48.546;-4.178;2022-08-20T07:32:43;14.05;;;2.28;;
62796;SDS011;48839;48.546;-4.178;2022-08-20T07:35:10;11.00;;;1.60;;
62796;SDS011;48839;48.546;-4.178;2022-08-20T07:37:39;8.50;;;1.65;;
62796;SDS011;48839;48.546;-4.178;2022-08-20T07:40:06;6.70;;;2.17;;
62796;SDS011;48839;48.546;-4.178;2022-08-20T07:42:33;13.27;;;2.55;;
62796;SDS011;48839;48.546;-4.178;2022-08-20T07:44:59;13.02;;;4.00;;
62796;SDS011;48839;48.546;-4.178;2022-08-20T07:47:25;12.60;;;2.53;;
62796;SDS011;48839;48.546;-4.178;2022-08-20T07:49:51;10.02;;;1.90;;
62796;SDS011;48839;48.546;-4.178;2022-08-20T07:52:17;9.70;;;1.63;;
62796;SDS011;48839;48.546;-4.178;2022-08-20T07:54:43;10.85;;;2.17;;
62796;SDS011;48839;48.546;-4.178;2022-08-20T07:57:09;8.35;;;1.85;;
62796;SDS011;48839;48.546;-4.178;2022-08-20T07:59:35;7.30;;;1.73;;
62796;SDS011;48839;48.546;-4.178;2022-08-20T08:02:02;11.25;;;2.15;;
62796;SDS011;48839;48.546;-4.178;2022-08-20T08:04:28;9.60;;;1.98;;
62796;SDS011;48839;48.546;-4.178;2022-08-20T08:06:54;9.23;;;1.70;;
62796;SDS011;48839;48.546;-4.178;2022-08-20T08:09:24;13.57;;;2.45;;
62796;SDS011;48839;48.546;-4.178;2022-08-20T08:11:50;13.07;;;2.58;;
62796;SDS011;48839;48.546;-4.178;2022-08-20T08:14:22;9.82;;;2.63;;
62796;SDS011;48839;48.546;-4.178;2022-08-20T08:16:51;10.05;;;2.47;;
62796;SDS011;48839;48.546;-4.178;2022-08-20T08:19:18;12.30;;;2.50;;
62796;SDS011;48839;48.546;-4.178;2022-08-20T08:21:44;8.50;;;1.88;;
62796;SDS011;48839;48.546;-4.178;2022-08-20T08:24:10;9.23;;;1.80;;
62796;SDS011;48839;48.546;-4.178;2022-08-20T08:26:37;10.35;;;2.13;;
62796;SDS011;48839;48.546;-4.178;2022-08-20T08:29:03;10.00;;;1.75;;
62796;SDS011;48839;48.546;-4.178;2022-08-20T08:31:31;10.77;;;2.60;;
62796;SDS011;48839;48.546;-4.178;2022-08-20T08:33:57;7.65;;;1.80;;
62796;SDS011;48839;48.546;-4.178;2022-08-20T08:36:24;10.07;;;1.90;;
62796;SDS011;48839;48.546;-4.178;2022-08-20T08:38:50;13.38;;;3.25;;
62796;SDS011;48839;48.546;-4.178;2022-08-20T08:41:19;10.18;;;2.10;;
62796;SDS011;48839;48.546;-4.178;2022-08-20T08:43:46;8.05;;;1.92;;
62796;SDS011;48839;48.546;-4.178;2022-08-20T08:46:14;7.90;;;1.83;;
62796;SDS011;48839;48.546;-4.178;2022-08-20T08:48:43;15.52;;;2.08;;
62796;SDS011;48839;48.546;-4.178;2022-08-20T08:51:12;5.88;;;1.70;;
62796;SDS011;48839;48.546;-4.178;2022-08-20T08:53:41;14.73;;;2.40;;
62796;SDS011;48839;48.546;-4.178;2022-08-20T08:56:10;10.02;;;2.53;;
62796;SDS011;48839;48.546;-4.178;2022-08-20T08:58:38;9.23;;;1.58;;
62796;SDS011;48839;48.546;-4.178;2022-08-20T09:01:11;11.13;;;2.22;;
62796;SDS011;48839;48.546;-4.178;2022-08-20T09:03:38;5.82;;;1.70;;
62796;SDS011;48839;48.546;-4.178;2022-08-20T09:06:07;12.88;;;2.38;;
62796;SDS011;48839;48.546;-4.178;2022-08-20T09:08:38;8.23;;;1.45;;
62796;SDS011;48839;48.546;-4.178;2022-08-20T09:11:08;8.70;;;1.42;;
62796;SDS011;48839;48.546;-4.178;2022-08-20T09:13:34;9.38;;;1.63;;
62796;SDS011;48839;48.546;-4.178;2022-08-20T09:16:00;10.25;;;2.00;;
62796;SDS011;48839;48.546;-4.178;2022-08-20T09:18:26;9.85;;;2.05;;
62796;SDS011;48839;48.546;-4.178;2022-08-20T09:20:52;8.75;;;2.10;;
62796;SDS011;48839;48.546;-4.178;2022-08-20T09:23:18;13.02;;;2.67;;
62796;SDS011;48839;48.546;-4.178;2022-08-20T09:25:44;7.55;;;1.70;;
62796;SDS011;48839;48.546;-4.178;2022-08-20T09:28:10;10.35;;;2.28;;
62796;SDS011;48839;48.546;-4.178;2022-08-20T09:30:36;8.05;;;1.95;;
62796;SDS011;48839;48.546;-4.178;2022-08-20T09:33:02;11.30;;;1.80;;
62796;SDS011;48839;48.546;-4.178;2022-08-20T09:35:28;15.63;;;2.17;;
62796;SDS011;48839;48.546;-4.178;2022-08-20T09:37:54;14.32;;;1.85;;
62796;SDS011;48839;48.546;-4.178;2022-08-20T09:40:20;8.55;;;1.92;;
62796;SDS011;48839;48.546;-4.178;2022-08-20T09:42:47;8.20;;;1.85;;
62796;SDS011;48839;48.546;-4.178;2022-08-20T09:45:13;13.95;;;2.65;;
62796;SDS011;48839;48.546;-4.178;2022-08-20T09:47:40;8.23;;;1.90;;
62796;SDS011;48839;48.546;-4.178;2022-08-20T09:50:06;6.07;;;2.00;;
62796;SDS011;48839;48.546;-4.178;2022-08-20T09:52:34;8.45;;;1.60;;
62796;SDS011;48839;48.546;-4.178;2022-08-20T09:55:07;8.10;;;1.73;;
62796;SDS011;48839;48.546;-4.178;2022-08-20T09:57:36;6.40;;;2.20;;
62796;SDS011;48839;48.546;-4.178;2022-08-20T10:00:04;5.82;;;1.65;;
62796;SDS011;48839;48.546;-4.178;2022-08-20T10:02:32;10.73;;;1.77;;
62796;SDS011;48839;48.546;-4.178;2022-08-20T10:04:58;10.77;;;1.65;;
62796;SDS011;48839;48.546;-4.178;2022-08-20T10:07:24;9.02;;;1.85;;
62796;SDS011;48839;48.546;-4.178;2022-08-20T10:09:50;8.40;;;1.80;;
62796;SDS011;48839;48.546;-4.178;2022-08-20T10:12:16;14.77;;;2.97;;
62796;SDS011;48839;48.546;-4.178;2022-08-20T10:14:42;7.18;;;1.48;;
62796;SDS011;48839;48.546;-4.178;2022-08-20T10:17:08;11.63;;;1.75;;
62796;SDS011;48839;48.546;-4.178;2022-08-20T10:19:34;7.85;;;1.70;;
62796;SDS011;48839;48.546;-4.178;2022-08-20T10:22:00;8.05;;;1.80;;
62796;SDS011;48839;48.546;-4.178;2022-08-20T10:24:27;7.05;;;2.45;;
62796;SDS011;48839;48.546;-4.178;2022-08-20T10:26:56;9.13;;;2.05;;
62796;SDS011;48839;48.546;-4.178;2022-08-20T10:29:23;11.70;;;2.00;;
62796;SDS011;48839;48.546;-4.178;2022-08-20T10:31:50;9.80;;;1.60;;
62796;SDS011;48839;48.546;-4.178;2022-08-20T10:34:16;8.63;;;1.65;;
62796;SDS011;48839;48.546;-4.178;2022-08-20T10:36:42;9.07;;;1.90;;
62796;SDS011;48839;48.546;-4.178;2022-08-20T10:39:08;7.32;;;1.70;;
62796;SDS011;48839;48.546;-4.178;2022-08-20T10:41:34;7.78;;;1.92;;
62796;SDS011;48839;48.546;-4.178;2022-08-20T10:44:01;13.18;;;2.50;;
62796;SDS011;48839;48.546;-4.178;2022-08-20T10:46:27;4.13;;;1.58;;
62796;SDS011;48839;48.546;-4.178;2022-08-20T10:48:53;11.27;;;2.13;;
62796;SDS011;48839;48.546;-4.178;2022-08-20T10:51:19;8.82;;;2.03;;
62796;SDS011;48839;48.546;-4.178;2022-08-20T10:53:45;8.73;;;2.63;;
62796;SDS011;48839;48.546;-4.178;2022-08-20T10:56:12;7.38;;;1.48;;
62796;SDS011;48839;48.546;-4.178;2022-08-20T10:58:38;9.07;;;1.92;;
62796;SDS011;48839;48.546;-4.178;2022-08-20T11:01:04;8.07;;;1.90;;
62796;SDS011;48839;48.546;-4.178;2022-08-20T11:03:30;7.45;;;1.60;;
62796;SDS011;48839;48.546;-4.178;2022-08-20T11:05:56;6.00;;;1.52;;
62796;SDS011;48839;48.546;-4.178;2022-08-20T11:08:22;8.50;;;1.75;;
62796;SDS011;48839;48.546;-4.178;2022-08-20T11:10:48;6.18;;;1.98;;
62796;SDS011;48839;48.546;-4.178;2022-08-20T11:13:14;9.57;;;1.73;;
62796;SDS011;48839;48.546;-4.178;2022-08-20T11:15:40;8.25;;;2.13;;
62796;SDS011;48839;48.546;-4.178;2022-08-20T11:18:07;9.02;;;2.53;;
62796;SDS011;48839;48.546;-4.178;2022-08-20T11:20:34;7.07;;;1.40;;
62796;SDS011;48839;48.546;-4.178;2022-08-20T11:23:00;3.78;;;1.27;;
62796;SDS011;48839;48.546;-4.178;2022-08-20T11:25:26;6.82;;;1.55;;
62796;SDS011;48839;48.546;-4.178;2022-08-20T11:27:53;8.13;;;1.88;;
62796;SDS011;48839;48.546;-4.178;2022-08-20T11:30:22;7.32;;;1.60;;
62796;SDS011;48839;48.546;-4.178;2022-08-20T11:32:48;8.38;;;1.92;;
62796;SDS011;48839;48.546;-4.178;2022-08-20T11:35:14;8.85;;;2.40;;
62796;SDS011;48839;48.546;-4.178;2022-08-20T11:37:41;7.95;;;1.73;;
62796;SDS011;48839;48.546;-4.178;2022-08-20T11:40:07;9.55;;;1.88;;
62796;SDS011;48839;48.546;-4.178;2022-08-20T11:42:36;5.68;;;1.67;;
62796;SDS011;48839;48.546;-4.178;2022-08-20T11:45:02;7.65;;;1.80;;
62796;SDS011;48839;48.546;-4.178;2022-08-20T11:47:28;6.72;;;1.67;;
62796;SDS011;48839;48.546;-4.178;2022-08-20T11:49:58;5.97;;;1.70;;
62796;SDS011;48839;48.546;-4.178;2022-08-20T11:52:25;8.32;;;2.00;;
62796;SDS011;48839;48.546;-4.178;2022-08-20T11:54:51;7.45;;;1.67;;
62796;SDS011;48839;48.546;-4.178;2022-08-20T11:57:21;9.10;;;1.90;;
62796;SDS011;48839;48.546;-4.178;2022-08-20T11:59:48;7.07;;;1.83;;
62796;SDS011;48839;48.546;-4.178;2022-08-20T12:02:14;10.13;;;2.03;;
62796;SDS011;48839;48.546;-4.178;2022-08-20T12:04:40;7.28;;;1.90;;
62796;SDS011;48839;48.546;-4.178;2022-08-20T12:07:10;8.27;;;1.70;;
62796;SDS011;48839;48.546;-4.178;2022-08-20T12:09:36;12.02;;;1.80;;
62796;SDS011;48839;48.546;-4.178;2022-08-20T12:12:02;9.85;;;1.90;;
62796;SDS011;48839;48.546;-4.178;2022-08-20T12:14:29;7.47;;;1.52;;
62796;SDS011;48839;48.546;-4.178;2022-08-20T12:16:55;4.35;;;1.30;;
62796;SDS011;48839;48.546;-4.178;2022-08-20T12:19:21;5.25;;;1.85;;
62796;SDS011;48839;48.546;-4.178;2022-08-20T12:21:47;4.95;;;1.40;;
62796;SDS011;48839;48.546;-4.178;2022-08-20T12:24:13;6.90;;;2.03;;
62796;SDS011;48839;48.546;-4.178;2022-08-20T12:26:39;10.30;;;1.90;;
62796;SDS011;48839;48.546;-4.178;2022-08-20T12:29:05;8.63;;;1.90;;
62796;SDS011;48839;48.546;-4.178;2022-08-20T12:31:31;8.85;;;2.08;;
62796;SDS011;48839;48.546;-4.178;2022-08-20T12:33:57;7.93;;;1.90;;
62796;SDS011;48839;48.546;-4.178;2022-08-20T12:36:23;4.75;;;1.55;;
62796;SDS011;48839;48.546;-4.178;2022-08-20T12:38:49;7.13;;;2.03;;
62796;SDS011;48839;48.546;-4.178;2022-08-20T12:41:15;7.38;;;1.98;;
62796;SDS011;48839;48.546;-4.178;2022-08-20T12:43:41;7.22;;;1.70;;
62796;SDS011;48839;48.546;-4.178;2022-08-20T12:46:07;8.05;;;1.73;;
62796;SDS011;48839;48.546;-4.178;2022-08-20T12:48:33;7.63;;;1.80;;
62796;SDS011;48839;48.546;-4.178;2022-08-20T12:50:59;8.70;;;1.70;;
62796;SDS011;48839;48.546;-4.178;2022-08-20T12:53:25;9.02;;;1.65;;
62796;SDS011;48839;48.546;-4.178;2022-08-20T12:55:51;5.55;;;1.60;;
62796;SDS011;48839;48.546;-4.178;2022-08-20T12:58:17;4.50;;;1.63;;
62796;SDS011;48839;48.546;-4.178;2022-08-20T13:00:44;6.85;;;1.48;;
62796;SDS011;48839;48.546;-4.178;2022-08-20T13:03:11;8.30;;;2.15;;
62796;SDS011;48839;48.546;-4.178;2022-08-20T13:05:38;7.70;;;1.27;;
62796;SDS011;48839;48.546;-4.178;2022-08-20T13:08:05;9.75;;;2.25;;
62796;SDS011;48839;48.546;-4.178;2022-08-20T13:10:33;5.20;;;1.73;;
62796;SDS011;48839;48.546;-4.178;2022-08-20T13:12:59;5.80;;;1.60;;
62796;SDS011;48839;48.546;-4.178;2022-08-20T13:15:27;4.22;;;1.23;;
62796;SDS011;48839;48.546;-4.178;2022-08-20T13:17:53;4.85;;;1.13;;
62796;SDS011;48839;48.546;-4.178;2022-08-20T13:20:20;4.53;;;1.13;;
62796;SDS011;48839;48.546;-4.178;2022-08-20T13:22:49;5.82;;;1.35;;
62796;SDS011;48839;48.546;-4.178;2022-08-20T13:25:16;3.97;;;1.58;;
62796;SDS011;48839;48.546;-4.178;2022-08-20T13:27:42;7.30;;;1.60;;
62796;SDS011;48839;48.546;-4.178;2022-08-20T13:30:10;6.97;;;1.50;;
62796;SDS011;48839;48.546;-4.178;2022-08-20T13:32:36;9.23;;;1.58;;
62796;SDS011;48839;48.546;-4.178;2022-08-20T13:35:02;4.38;;;1.65;;
62796;SDS011;48839;48.546;-4.178;2022-08-20T13:37:29;8.38;;;2.05;;
62796;SDS011;48839;48.546;-4.178;2022-08-20T13:39:55;4.15;;;1.27;;
62796;SDS011;48839;48.546;-4.178;2022-08-20T13:42:22;4.22;;;1.25;;
62796;SDS011;48839;48.546;-4.178;2022-08-20T13:44:48;9.75;;;1.98;;
62796;SDS011;48839;48.546;-4.178;2022-08-20T13:47:15;6.63;;;1.60;;
62796;SDS011;48839;48.546;-4.178;2022-08-20T13:49:41;8.85;;;1.65;;
62796;SDS011;48839;48.546;-4.178;2022-08-20T13:52:07;5.80;;;1.30;;
62796;SDS011;48839;48.546;-4.178;2022-08-20T13:54:33;12.13;;;2.10;;
62796;SDS011;48839;48.546;-4.178;2022-08-20T13:57:07;6.38;;;1.45;;
62796;SDS011;48839;48.546;-4.178;2022-08-20T13:59:35;8.57;;;1.85;;
62796;SDS011;48839;48.546;-4.178;2022-08-20T14:02:01;6.00;;;1.73;;
62796;SDS011;48839;48.546;-4.178;2022-08-20T14:04:27;5.00;;;1.85;;
62796;SDS011;48839;48.546;-4.178;2022-08-20T14:06:53;4.47;;;1.15;;
62796;SDS011;48839;48.546;-4.178;2022-08-20T14:09:19;6.65;;;1.55;;
62796;SDS011;48839;48.546;-4.178;2022-08-20T14:11:45;10.48;;;1.50;;
62796;SDS011;48839;48.546;-4.178;2022-08-20T14:14:11;6.25;;;1.88;;
62796;SDS011;48839;48.546;-4.178;2022-08-20T14:16:37;7.10;;;1.50;;
62796;SDS011;48839;48.546;-4.178;2022-08-20T14:19:04;7.65;;;1.30;;
62796;SDS011;48839;48.546;-4.178;2022-08-20T14:21:30;9.45;;;2.28;;
62796;SDS011;48839;48.546;-4.178;2022-08-20T14:23:56;7.78;;;2.00;;
62796;SDS011;48839;48.546;-4.178;2022-08-20T14:26:22;6.63;;;1.50;;
62796;SDS011;48839;48.546;-4.178;2022-08-20T14:28:48;5.60;;;1.50;;
62796;SDS011;48839;48.546;-4.178;2022-08-20T14:31:14;9.00;;;2.13;;
62796;SDS011;48839;48.546;-4.178;2022-08-20T14:33:40;6.95;;;1.50;;
62796;SDS011;48839;48.546;-4.178;2022-08-20T14:36:06;12.82;;;1.50;;
62796;SDS011;48839;48.546;-4.178;2022-08-20T14:38:32;8.77;;;1.60;;
62796;SDS011;48839;48.546;-4.178;2022-08-20T14:40:58;10.50;;;1.90;;